Time;durP1;ratioP1;P1;durP2;ratioP2;P2;SDS_P1;SDS_P2;PMS_P1;PMS_P2;Temp;Humidity;BMP_temperature;BMP_pressure;BME280_temperature;BME280_humidity;BME280_pressure;Samples;Min_cycle;Max_cycle;Signal;HPM_P1;HPM_P2
2023/06/04 00:02:05;;;;;;;4.90;1.08;;;10.50;99.90;;;;;;5031382;28;20128;-80
2023/06/04 00:04:30;;;;;;;4.50;1.27;;;10.50;99.90;;;;;;5033456;28;20103;-79
2023/06/04 00:06:56;;;;;;;5.95;1.90;;;10.40;99.90;;;;;;5029237;28;20033;-80
2023/06/04 00:09:21;;;;;;;3.70;1.42;;;10.40;99.90;;;;;;5032088;28;20049;-80
2023/06/04 00:11:47;;;;;;;7.60;1.85;;;10.40;99.90;;;;;;5029200;28;20041;-80
2023/06/04 00:14:13;;;;;;;8.38;2.50;;;10.40;99.90;;;;;;5032114;28;20620;-79
2023/06/04 00:16:40;;;;;;;6.78;2.17;;;10.40;99.90;;;;;;5030276;28;20045;-80
2023/06/04 00:19:06;;;;;;;4.95;1.67;;;10.40;99.90;;;;;;5028004;28;20083;-80
2023/06/04 00:21:32;;;;;;;4.95;1.88;;;10.40;99.90;;;;;;5031758;28;20046;-79
2023/06/04 00:23:59;;;;;;;5.00;1.70;;;10.40;99.90;;;;;;5028179;28;20045;-81
2023/06/04 00:26:24;;;;;;;4.30;1.95;;;10.40;99.90;;;;;;5030734;28;20104;-79
2023/06/04 00:28:50;;;;;;;4.90;2.05;;;10.30;99.90;;;;;;5028992;28;20060;-80
2023/06/04 00:31:15;;;;;;;5.30;2.65;;;10.40;99.90;;;;;;5029544;28;20057;-79
2023/06/04 00:33:41;;;;;;;4.38;1.73;;;10.40;99.90;;;;;;5030233;28;20042;-80
2023/06/04 00:36:07;;;;;;;4.50;1.98;;;10.30;99.90;;;;;;5029748;28;20795;-80
2023/06/04 00:38:33;;;;;;;3.13;1.80;;;10.30;99.90;;;;;;5028442;28;20121;-80
2023/06/04 00:40:58;;;;;;;5.18;2.47;;;10.30;99.90;;;;;;5024390;28;20113;-79
2023/06/04 00:43:27;;;;;;;4.97;1.90;;;10.20;99.90;;;;;;5032430;28;20065;-80
2023/06/04 00:45:54;;;;;;;7.07;2.63;;;10.20;99.90;;;;;;5033724;28;20049;-80
2023/06/04 00:48:21;;;;;;;4.07;1.98;;;10.10;99.90;;;;;;5030905;28;20502;-80
2023/06/04 00:50:48;;;;;;;3.95;2.17;;;10.10;99.90;;;;;;5032710;28;20119;-80
2023/06/04 00:53:13;;;;;;;6.75;1.98;;;10.00;99.90;;;;;;5029232;28;20045;-80
2023/06/04 00:55:39;;;;;;;6.82;2.05;;;10.10;99.90;;;;;;5029851;28;20039;-80
2023/06/04 00:58:05;;;;;;;5.07;2.60;;;10.00;99.90;;;;;;5027874;28;20095;-80
2023/06/04 01:00:32;;;;;;;5.78;2.63;;;10.00;99.90;;;;;;5029823;28;20052;-80
2023/06/04 01:03:02;;;;;;;4.38;2.22;;;10.00;99.90;;;;;;5030313;28;20033;-80
2023/06/04 01:05:54;;;;;;;3.78;2.22;;;10.00;99.90;;;;;;5032658;28;20049;-80
2023/06/04 01:08:20;;;;;;;6.18;2.75;;;10.00;99.90;;;;;;5032571;28;20072;-80
2023/06/04 01:10:52;;;;;;;5.82;2.67;;;9.90;99.90;;;;;;5032123;28;20061;-80
2023/06/04 01:13:18;;;;;;;4.43;2.17;;;9.90;99.90;;;;;;5035040;28;20128;-80
2023/06/04 01:15:43;;;;;;;4.15;1.83;;;9.90;99.90;;;;;;5036636;28;20080;-80
2023/06/04 01:18:09;;;;;;;5.20;2.53;;;9.80;99.90;;;;;;5035384;28;20065;-80
2023/06/04 01:20:35;;;;;;;5.80;2.80;;;9.80;99.90;;;;;;5034019;28;20094;-80
2023/06/04 01:23:19;;;;;;;4.85;2.15;;;9.70;99.90;;;;;;5033715;28;20632;-80
2023/06/04 01:25:49;;;;;;;5.50;2.78;;;9.70;99.90;;;;;;5035118;28;20069;-80
2023/06/04 01:28:16;;;;;;;3.80;1.80;;;9.50;99.90;;;;;;5041848;28;20045;-80
2023/06/04 01:30:45;;;;;;;3.60;2.10;;;9.60;99.90;;;;;;5033973;28;20406;-80
2023/06/04 01:33:12;;;;;;;7.38;2.17;;;9.50;99.90;;;;;;5035142;28;20045;-80
2023/06/04 01:35:38;;;;;;;6.88;2.95;;;9.40;99.90;;;;;;5033026;28;20041;-80
2023/06/04 01:38:04;;;;;;;7.43;2.08;;;9.40;99.90;;;;;;5033499;28;20124;-80
2023/06/04 01:40:30;;;;;;;5.93;2.30;;;9.50;99.90;;;;;;5032059;28;20137;-79
2023/06/04 01:42:56;;;;;;;9.00;3.22;;;9.50;99.90;;;;;;5033643;28;20033;-79
2023/06/04 01:45:22;;;;;;;5.05;2.70;;;9.50;99.90;;;;;;5034523;28;20037;-79
2023/06/04 01:47:48;;;;;;;5.80;2.05;;;9.50;99.90;;;;;;5029923;28;20043;-79
2023/06/04 01:50:14;;;;;;;8.07;2.88;;;9.50;99.90;;;;;;5032287;28;20045;-80
2023/06/04 01:52:40;;;;;;;5.35;2.28;;;9.50;99.90;;;;;;5033553;28;20045;-79
2023/06/04 01:55:08;;;;;;;6.75;2.47;;;9.50;99.90;;;;;;5034023;28;20037;-79
2023/06/04 01:57:35;;;;;;;6.28;3.17;;;9.60;99.90;;;;;;5033589;28;20080;-79
2023/06/04 02:00:01;;;;;;;6.75;2.40;;;9.60;99.90;;;;;;5034597;28;20049;-79
2023/06/04 02:02:26;;;;;;;7.63;2.88;;;9.70;99.90;;;;;;5031775;28;20105;-79
2023/06/04 02:04:52;;;;;;;5.97;3.05;;;9.60;99.90;;;;;;5031950;28;20080;-79
2023/06/04 02:07:22;;;;;;;7.75;2.42;;;9.60;99.90;;;;;;5031063;28;20038;-80
2023/06/04 02:09:48;;;;;;;3.63;2.15;;;9.70;99.90;;;;;;5030389;28;20458;-79
2023/06/04 02:12:14;;;;;;;9.05;3.20;;;9.60;99.90;;;;;;5032901;28;20065;-79
2023/06/04 02:14:41;;;;;;;8.43;2.67;;;9.70;99.90;;;;;;5031297;28;20083;-79
2023/06/04 02:17:12;;;;;;;8.85;4.15;;;9.60;99.90;;;;;;5031649;28;20029;-80
2023/06/04 02:19:44;;;;;;;7.65;3.03;;;9.60;99.90;;;;;;5032266;28;20069;-79
2023/06/04 02:22:11;;;;;;;5.63;2.28;;;9.70;99.90;;;;;;5028082;28;20088;-79
2023/06/04 02:24:38;;;;;;;6.22;2.90;;;9.70;99.90;;;;;;5030017;28;20094;-79
2023/06/04 02:27:05;;;;;;;8.38;3.13;;;9.60;99.90;;;;;;5029949;28;20044;-80
2023/06/04 02:29:31;;;;;;;7.40;2.30;;;9.60;99.90;;;;;;5029830;28;20042;-80
2023/06/04 02:31:56;;;;;;;5.45;2.63;;;9.60;99.90;;;;;;5031542;28;20145;-80
2023/06/04 02:34:23;;;;;;;6.57;2.95;;;9.50;99.90;;;;;;5030708;28;20700;-80
2023/06/04 02:36:50;;;;;;;6.45;3.28;;;9.50;99.90;;;;;;5028690;28;20076;-80
2023/06/04 02:39:16;;;;;;;9.27;3.08;;;9.50;99.90;;;;;;5028397;28;20208;-80
2023/06/04 02:41:42;;;;;;;9.25;4.05;;;9.50;99.90;;;;;;5029553;28;20045;-80
2023/06/04 02:44:07;;;;;;;8.55;3.60;;;9.50;99.90;;;;;;5030275;28;20068;-80
2023/06/04 02:46:33;;;;;;;7.47;3.30;;;9.60;99.90;;;;;;5012882;28;20046;-80
2023/06/04 02:48:59;;;;;;;8.90;3.38;;;9.50;99.90;;;;;;5030479;28;20069;-80
2023/06/04 02:51:25;;;;;;;12.77;3.50;;;9.60;99.90;;;;;;5031873;28;20049;-80
2023/06/04 02:53:50;;;;;;;9.05;3.92;;;9.50;99.90;;;;;;5031351;28;20037;-80
2023/06/04 02:56:16;;;;;;;8.05;3.90;;;9.40;99.90;;;;;;5031026;28;20492;-80
2023/06/04 02:58:57;;;;;;;7.82;4.03;;;9.40;99.90;;;;;;5027514;28;20072;-80
2023/06/04 03:01:24;;;;;;;11.65;4.35;;;9.30;99.90;;;;;;4992404;28;1027945;-80
2023/06/04 03:03:50;;;;;;;15.93;4.32;;;9.40;99.90;;;;;;5031793;28;20045;-80
2023/06/04 03:06:17;;;;;;;8.70;4.35;;;9.40;99.90;;;;;;5033081;28;20068;-80
2023/06/04 03:08:43;;;;;;;16.30;4.70;;;9.40;99.90;;;;;;5033039;28;20033;-80
2023/06/04 03:11:09;;;;;;;10.00;4.07;;;9.40;99.90;;;;;;5027742;28;20041;-80
2023/06/04 03:13:35;;;;;;;11.77;4.25;;;9.50;99.90;;;;;;5028120;28;20709;-80
2023/06/04 03:16:02;;;;;;;13.00;5.55;;;9.40;99.90;;;;;;5026498;28;20041;-80
2023/06/04 03:18:28;;;;;;;13.82;4.40;;;9.50;99.90;;;;;;5029410;28;20052;-79
2023/06/04 03:20:54;;;;;;;6.30;4.10;;;9.50;99.90;;;;;;5031287;28;20132;-80
2023/06/04 03:23:21;;;;;;;10.20;3.83;;;9.50;99.90;;;;;;5026097;28;20551;-80
2023/06/04 03:25:47;;;;;;;10.73;4.90;;;9.50;99.90;;;;;;5024605;28;20034;-80
2023/06/04 03:28:13;;;;;;;13.57;4.57;;;9.50;99.90;;;;;;5026142;28;20484;-80
2023/06/04 03:30:40;;;;;;;10.07;5.13;;;9.60;99.90;;;;;;5026684;28;20052;-80
2023/06/04 03:33:05;;;;;;;13.43;4.60;;;9.60;99.90;;;;;;5030085;28;20091;-80
2023/06/04 03:35:31;;;;;;;13.13;4.32;;;9.60;99.90;;;;;;5031522;28;20909;-80
2023/06/04 03:37:57;;;;;;;13.75;6.50;;;9.70;99.90;;;;;;5030996;28;20037;-79
2023/06/04 03:40:22;;;;;;;11.30;4.40;;;9.70;99.90;;;;;;5028467;28;20037;-80
2023/06/04 03:42:48;;;;;;;11.43;5.30;;;9.70;99.90;;;;;;5044125;28;20052;-79
2023/06/04 03:45:13;;;;;;;12.25;4.88;;;9.70;99.90;;;;;;5029045;28;20101;-80
2023/06/04 03:47:39;;;;;;;9.30;4.40;;;9.70;99.90;;;;;;5029125;28;20107;-80
2023/06/04 03:50:06;;;;;;;10.38;4.53;;;9.70;99.90;;;;;;5029909;28;20037;-80
2023/06/04 03:52:31;;;;;;;10.65;4.65;;;9.80;99.90;;;;;;5029793;28;20123;-80
2023/06/04 03:54:57;;;;;;;9.82;4.18;;;9.80;99.90;;;;;;5029204;28;20059;-80
2023/06/04 03:57:23;;;;;;;12.13;4.25;;;9.80;99.90;;;;;;5028654;28;20071;-79
2023/06/04 03:59:48;;;;;;;10.20;4.10;;;9.80;99.90;;;;;;5026643;28;20045;-79
2023/06/04 04:02:14;;;;;;;10.60;4.40;;;9.80;99.90;;;;;;5027305;28;20039;-79
2023/06/04 04:04:40;;;;;;;11.80;4.05;;;9.90;99.90;;;;;;5030347;28;20084;-80
2023/06/04 04:07:05;;;;;;;12.30;5.03;;;9.90;99.90;;;;;;5030434;28;20045;-80
2023/06/04 04:09:31;;;;;;;11.27;4.03;;;10.00;99.90;;;;;;5025269;28;20053;-80
2023/06/04 04:11:57;;;;;;;12.10;4.50;;;10.10;99.90;;;;;;5028611;28;20083;-80
2023/06/04 04:14:22;;;;;;;8.93;4.28;;;10.20;99.90;;;;;;5029685;28;20037;-80
2023/06/04 04:16:48;;;;;;;13.07;5.03;;;10.40;99.90;;;;;;5029759;28;20037;-80
2023/06/04 04:19:14;;;;;;;7.50;3.40;;;10.60;99.90;;;;;;5030394;28;20474;-80
2023/06/04 04:21:39;;;;;;;9.35;3.95;;;11.00;99.90;;;;;;5029954;28;20574;-81
2023/06/04 04:24:05;;;;;;;6.05;3.25;;;11.90;99.90;;;;;;5023791;28;20029;-80
2023/06/04 04:26:31;;;;;;;9.52;3.38;;;12.90;99.90;;;;;;5026433;28;20037;-81
2023/06/04 04:28:57;;;;;;;7.03;2.95;;;13.70;99.90;;;;;;5030407;28;20029;-80
2023/06/04 04:31:23;;;;;;;11.93;4.40;;;14.50;99.90;;;;;;5028643;28;20108;-80
2023/06/04 04:33:51;;;;;;;9.10;3.30;;;15.10;99.90;;;;;;5028644;28;20038;-80
2023/06/04 04:36:18;;;;;;;6.00;2.75;;;15.70;99.90;;;;;;5024530;28;20041;-80
2023/06/04 04:38:44;;;;;;;8.57;3.10;;;16.00;99.90;;;;;;5027627;28;20041;-80
2023/06/04 04:41:11;;;;;;;11.52;3.20;;;16.60;99.90;;;;;;5029932;28;20041;-80
2023/06/04 04:43:39;;;;;;;8.48;3.25;;;16.80;99.90;;;;;;5029178;28;20042;-80
2023/06/04 04:46:05;;;;;;;6.90;2.75;;;17.10;99.90;;;;;;5025776;28;20034;-80
2023/06/04 04:48:31;;;;;;;8.60;2.67;;;17.60;99.90;;;;;;5007833;28;20037;-81
2023/06/04 04:50:57;;;;;;;9.75;2.90;;;17.90;99.90;;;;;;5029211;28;20461;-80
2023/06/04 04:53:22;;;;;;;8.35;3.35;;;17.90;99.90;;;;;;5031232;28;20037;-80
2023/06/04 04:55:48;;;;;;;6.13;2.60;;;18.00;99.90;;;;;;5028689;28;20033;-80
2023/06/04 04:58:14;;;;;;;8.18;2.65;;;18.40;99.90;;;;;;5027125;28;20173;-80
2023/06/04 05:00:40;;;;;;;9.30;2.33;;;18.80;99.90;;;;;;5027136;28;20056;-80
2023/06/04 05:03:06;;;;;;;5.35;2.22;;;19.10;99.90;;;;;;5022442;28;20033;-80
2023/06/04 05:05:33;;;;;;;5.78;2.08;;;19.10;99.90;;;;;;5029253;28;20098;-80
2023/06/04 05:07:58;;;;;;;5.00;2.30;;;19.00;99.90;;;;;;5027730;28;20048;-80
2023/06/04 05:10:24;;;;;;;6.60;2.70;;;18.70;99.90;;;;;;5030034;28;20115;-79
2023/06/04 05:12:58;;;;;;;8.93;3.25;;;18.10;99.90;;;;;;5027139;28;20041;-80
2023/06/04 05:15:26;;;;;;;7.57;2.30;;;17.60;99.90;;;;;;5039191;28;20038;-80
2023/06/04 05:17:52;;;;;;;7.50;2.40;;;17.90;99.90;;;;;;5026912;28;20384;-80
2023/06/04 05:20:18;;;;;;;6.20;2.25;;;18.60;99.90;;;;;;5029884;28;20083;-80
2023/06/04 05:22:45;;;;;;;5.00;2.38;;;19.60;99.90;;;;;;5027890;28;20061;-80
2023/06/04 05:25:11;;;;;;;5.70;2.08;;;20.70;99.90;;;;;;5025957;28;20046;-80
2023/06/04 05:27:37;;;;;;;6.72;2.75;;;21.40;99.90;;;;;;5029029;28;20041;-79
2023/06/04 05:30:03;;;;;;;8.00;2.80;;;21.60;99.90;;;;;;5029128;28;20037;-80
2023/06/04 05:32:30;;;;;;;8.68;3.03;;;21.10;99.90;;;;;;5028084;28;20392;-79
2023/06/04 05:34:58;;;;;;;5.82;2.50;;;20.70;99.90;;;;;;5029372;28;20041;-80
2023/06/04 05:37:26;;;;;;;8.15;2.85;;;19.80;99.90;;;;;;5030045;28;20045;-80
2023/06/04 05:39:52;;;;;;;7.93;2.92;;;19.40;99.90;;;;;;5027169;28;20149;-79
2023/06/04 05:42:18;;;;;;;9.68;3.20;;;19.00;99.90;;;;;;5024867;28;20045;-80
2023/06/04 05:44:43;;;;;;;12.32;3.53;;;18.90;99.90;;;;;;5027811;28;20068;-79
2023/06/04 05:47:09;;;;;;;9.30;2.63;;;18.80;99.90;;;;;;5029365;28;20079;-79
2023/06/04 05:49:34;;;;;;;7.35;3.28;;;18.80;99.90;;;;;;5030115;28;20045;-80
2023/06/04 05:52:00;;;;;;;7.10;3.50;;;18.70;99.90;;;;;;5028690;28;20037;-80
2023/06/04 05:54:28;;;;;;;6.43;2.47;;;18.60;99.90;;;;;;5029991;28;20117;-80
2023/06/04 05:56:54;;;;;;;8.63;2.90;;;18.60;99.90;;;;;;5031873;28;20041;-80
2023/06/04 05:59:20;;;;;;;8.95;3.55;;;18.40;99.90;;;;;;5034783;28;20136;-80
2023/06/04 06:01:47;;;;;;;8.43;3.03;;;18.30;99.90;;;;;;5028893;28;20093;-80
2023/06/04 06:04:13;;;;;;;8.48;2.92;;;18.50;99.90;;;;;;5030504;28;20130;-80
2023/06/04 06:06:39;;;;;;;7.57;2.70;;;18.40;99.90;;;;;;5025084;28;20045;-79
2023/06/04 06:09:05;;;;;;;10.35;3.25;;;18.40;99.90;;;;;;5031028;28;20061;-79
2023/06/04 06:11:31;;;;;;;9.85;3.25;;;18.50;99.90;;;;;;5029165;28;20045;-79
2023/06/04 06:13:56;;;;;;;7.07;3.55;;;18.70;99.90;;;;;;5031413;28;20483;-79
2023/06/04 06:16:22;;;;;;;10.60;3.58;;;18.50;99.90;;;;;;5030822;28;20046;-80
2023/06/04 06:18:47;;;;;;;10.90;3.70;;;18.40;99.90;;;;;;5034179;28;20449;-79
2023/06/04 06:21:13;;;;;;;7.35;3.00;;;18.30;99.90;;;;;;5028379;28;20037;-79
2023/06/04 06:23:38;;;;;;;9.50;3.10;;;18.50;99.90;;;;;;5031505;28;20056;-80
2023/06/04 06:26:07;;;;;;;7.97;3.80;;;18.40;99.90;;;;;;5034309;28;20046;-79
2023/06/04 06:28:33;;;;;;;6.53;3.03;;;18.60;99.90;;;;;;5032796;28;20557;-79
2023/06/04 06:30:59;;;;;;;7.25;2.85;;;18.60;99.90;;;;;;5028567;28;20076;-79
2023/06/04 06:33:24;;;;;;;8.60;3.35;;;18.80;99.90;;;;;;5032784;28;20407;-80
2023/06/04 06:35:50;;;;;;;7.93;2.55;;;18.70;99.90;;;;;;5030562;28;20049;-80
2023/06/04 06:38:16;;;;;;;9.10;2.92;;;18.90;99.90;;;;;;5034365;28;20029;-79
2023/06/04 06:40:41;;;;;;;6.78;2.40;;;19.10;99.90;;;;;;5031447;28;20096;-80
2023/06/04 06:43:07;;;;;;;11.35;2.85;;;19.10;99.90;;;;;;5029050;28;20056;-80
2023/06/04 06:45:32;;;;;;;9.75;2.67;;;19.20;99.90;;;;;;5028172;28;20164;-80
2023/06/04 06:47:58;;;;;;;5.85;2.22;;;19.20;99.90;;;;;;5032236;28;20044;-81
2023/06/04 06:50:23;;;;;;;10.52;2.33;;;19.20;99.90;;;;;;5032194;28;20061;-79
2023/06/04 06:52:49;;;;;;;10.70;3.10;;;19.10;99.90;;;;;;5029965;28;20045;-80
2023/06/04 06:55:15;;;;;;;5.95;2.30;;;19.20;99.90;;;;;;5027561;28;20630;-79
2023/06/04 06:57:41;;;;;;;9.43;2.55;;;19.40;99.90;;;;;;5028398;28;20260;-80
2023/06/04 07:00:07;;;;;;;7.88;2.22;;;19.30;99.90;;;;;;5031591;28;20042;-79
2023/06/04 07:02:32;;;;;;;12.52;2.58;;;19.40;99.90;;;;;;5030590;28;20069;-80
2023/06/04 07:04:58;;;;;;;8.80;2.40;;;19.40;99.90;;;;;;5023311;28;20069;-79
2023/06/04 07:07:23;;;;;;;5.00;2.05;;;18.90;99.90;;;;;;5024370;28;20544;-80
2023/06/04 07:09:49;;;;;;;6.50;2.40;;;18.70;99.90;;;;;;5010355;28;20057;-81
2023/06/04 07:12:15;;;;;;;8.73;2.10;;;18.90;99.90;;;;;;5026491;28;20075;-80
2023/06/04 07:14:41;;;;;;;8.73;2.85;;;18.90;99.90;;;;;;5027625;28;20069;-80
2023/06/04 07:17:07;;;;;;;13.27;2.60;;;19.00;99.90;;;;;;5026306;28;20041;-80
2023/06/04 07:19:33;;;;;;;4.78;1.83;;;19.10;99.90;;;;;;5025227;28;20064;-80
2023/06/04 07:21:58;;;;;;;7.95;2.10;;;19.00;99.90;;;;;;5025923;28;20044;-79
2023/06/04 07:24:24;;;;;;;5.72;1.83;;;19.00;99.90;;;;;;5028961;28;20492;-80
2023/06/04 07:26:50;;;;;;;5.97;1.88;;;19.10;99.90;;;;;;5029146;28;20088;-80
2023/06/04 07:29:16;;;;;;;7.07;2.10;;;19.10;99.90;;;;;;5031585;28;20044;-80
2023/06/04 07:31:42;;;;;;;4.32;2.42;;;19.20;99.90;;;;;;5032044;28;20040;-79
2023/06/04 07:34:07;;;;;;;6.45;2.80;;;19.20;99.90;;;;;;5025404;28;20045;-79
2023/06/04 07:36:33;;;;;;;6.88;2.30;;;19.10;99.90;;;;;;5023294;28;20057;-79
2023/06/04 07:38:59;;;;;;;7.00;3.17;;;19.10;99.90;;;;;;5027470;28;20041;-80
2023/06/04 07:41:26;;;;;;;6.55;2.17;;;19.50;99.90;;;;;;5024640;28;20053;-79
2023/06/04 07:43:51;;;;;;;7.25;1.80;;;19.70;99.90;;;;;;5025188;28;20047;-80
2023/06/04 07:46:18;;;;;;;9.27;2.58;;;19.90;99.90;;;;;;5024556;28;20034;-80
2023/06/04 07:48:44;;;;;;;6.03;1.65;;;20.10;99.90;;;;;;5042174;28;20069;-80
2023/06/04 07:51:11;;;;;;;7.25;2.42;;;20.20;99.90;;;;;;5026033;28;20045;-80
2023/06/04 07:53:37;;;;;;;6.80;2.10;;;20.20;99.90;;;;;;5030633;28;20064;-80
2023/06/04 07:56:03;;;;;;;8.02;1.58;;;20.00;99.90;;;;;;5025468;28;20561;-80
2023/06/04 07:58:29;;;;;;;6.95;1.73;;;19.90;99.90;;;;;;5028836;28;20065;-80
2023/06/04 08:00:55;;;;;;;9.10;1.80;;;20.00;99.90;;;;;;5030884;28;20052;-80
2023/06/04 08:03:21;;;;;;;5.32;1.77;;;20.10;99.90;;;;;;5025413;28;20060;-79
2023/06/04 08:05:47;;;;;;;7.50;1.70;;;20.20;99.90;;;;;;5029960;28;20037;-79
2023/06/04 08:08:12;;;;;;;6.32;2.65;;;20.40;99.90;;;;;;5023149;28;20083;-79
2023/06/04 08:10:39;;;;;;;5.43;1.50;;;20.60;99.90;;;;;;5029727;28;20041;-79
2023/06/04 08:13:05;;;;;;;5.70;1.33;;;20.80;99.90;;;;;;5022838;28;20046;-80
2023/06/04 08:15:30;;;;;;;4.82;1.48;;;20.90;99.90;;;;;;5027614;28;20037;-80
2023/06/04 08:17:56;;;;;;;5.78;1.77;;;20.80;99.90;;;;;;5030160;28;20049;-79
2023/06/04 08:20:23;;;;;;;5.50;1.35;;;20.80;99.90;;;;;;5025108;28;20132;-79
2023/06/04 08:22:48;;;;;;;4.35;1.20;;;21.00;99.90;;;;;;5029700;28;20037;-80
2023/06/04 08:25:14;;;;;;;5.88;1.30;;;21.10;99.90;;;;;;5026788;28;20037;-80
2023/06/04 08:27:40;;;;;;;4.38;1.45;;;21.00;99.90;;;;;;5028271;28;20047;-80
2023/06/04 08:30:07;;;;;;;4.63;1.33;;;21.00;99.90;;;;;;5026477;28;20069;-80
2023/06/04 08:32:32;;;;;;;8.15;1.77;;;21.10;99.90;;;;;;5030409;28;20084;-81
2023/06/04 08:34:58;;;;;;;7.35;1.55;;;21.20;99.90;;;;;;5031026;28;20644;-79
2023/06/04 08:37:24;;;;;;;5.53;1.33;;;21.50;99.90;;;;;;5030741;28;20056;-78
2023/06/04 08:39:50;;;;;;;4.72;1.60;;;21.70;99.90;;;;;;5030686;28;20058;-79
2023/06/04 08:42:22;;;;;;;5.70;1.30;;;21.90;99.90;;;;;;5027570;28;20167;-79
2023/06/04 08:44:53;;;;;;;5.82;1.38;;;22.00;99.90;;;;;;5026226;28;20048;-79
2023/06/04 08:47:21;;;;;;;4.00;1.00;;;22.10;99.90;;;;;;5027169;28;20040;-80
2023/06/04 08:49:51;;;;;;;4.75;1.80;;;22.10;99.90;;;;;;5033189;28;20113;-80
2023/06/04 08:52:16;;;;;;;4.90;1.17;;;22.20;99.90;;;;;;5030706;28;20037;-80
2023/06/04 08:54:42;;;;;;;3.40;1.20;;;22.30;99.70;;;;;;5027414;28;20091;-80
2023/06/04 08:57:08;;;;;;;7.45;2.15;;;22.40;99.90;;;;;;5044470;28;20045;-78
2023/06/04 08:59:35;;;;;;;4.78;1.30;;;22.40;99.50;;;;;;5030065;28;20069;-79
2023/06/04 09:02:01;;;;;;;4.72;1.42;;;21.80;98.00;;;;;;5027391;28;20033;-80
2023/06/04 09:04:27;;;;;;;5.05;1.17;;;21.80;99.20;;;;;;5031801;28;20538;-79
2023/06/04 09:06:54;;;;;;;4.35;1.10;;;21.70;99.40;;;;;;5026029;28;20042;-80
2023/06/04 09:09:21;;;;;;;3.75;1.02;;;21.70;99.30;;;;;;5027184;28;20503;-79
2023/06/04 09:11:56;;;;;;;5.07;1.10;;;21.80;99.00;;;;;;5027724;28;20087;-79
2023/06/04 09:14:22;;;;;;;7.03;1.35;;;22.00;99.20;;;;;;5029017;28;20112;-78
2023/06/04 09:16:50;;;;;;;4.55;0.98;;;22.20;98.90;;;;;;5026857;28;20396;-79
2023/06/04 09:19:17;;;;;;;4.28;1.30;;;22.40;99.00;;;;;;5027241;28;20037;-78
2023/06/04 09:21:56;;;;;;;2.35;0.90;;;22.40;98.20;;;;;;5028800;28;20076;-79
2023/06/04 09:24:24;;;;;;;1.83;0.77;;;22.60;98.80;;;;;;5027367;28;20126;-78
2023/06/04 09:26:50;;;;;;;2.85;1.02;;;22.90;97.60;;;;;;5027596;28;20041;-79
2023/06/04 09:29:16;;;;;;;3.08;0.95;;;22.90;96.30;;;;;;5019524;28;20038;-79
2023/06/04 09:31:46;;;;;;;2.58;0.73;;;22.40;95.70;;;;;;5039569;28;20054;-79
2023/06/04 09:34:12;;;;;;;3.05;1.10;;;22.40;95.10;;;;;;5036089;28;20037;-79
2023/06/04 09:36:37;;;;;;;2.55;0.82;;;22.40;94.80;;;;;;5033589;28;20128;-79
2023/06/04 09:39:04;;;;;;;2.88;1.05;;;22.10;95.30;;;;;;5036846;28;20040;-79
2023/06/04 09:41:30;;;;;;;1.55;0.65;;;22.00;94.80;;;;;;5033697;28;20045;-79
2023/06/04 09:44:02;;;;;;;2.03;0.80;;;21.80;95.00;;;;;;5034758;28;20032;-79
2023/06/04 09:46:29;;;;;;;1.42;0.52;;;21.70;93.80;;;;;;5027433;28;20496;-79
2023/06/04 09:49:05;;;;;;;3.35;0.77;;;21.60;94.70;;;;;;5030102;28;20124;-79
2023/06/04 09:51:31;;;;;;;3.33;0.85;;;21.70;94.20;;;;;;5032897;28;20120;-79
2023/06/04 09:54:02;;;;;;;2.08;0.65;;;21.70;94.60;;;;;;5033597;28;20060;-79
2023/06/04 09:56:28;;;;;;;5.40;0.85;;;21.90;94.00;;;;;;5028361;28;20123;-80
2023/06/04 09:58:57;;;;;;;2.72;0.95;;;22.00;93.00;;;;;;5029992;28;20080;-78
2023/06/04 10:01:26;;;;;;;4.20;1.05;;;22.10;94.60;;;;;;5032111;28;20037;-79
2023/06/04 10:03:53;;;;;;;1.60;1.08;;;21.90;92.90;;;;;;5032467;28;20446;-79
2023/06/04 10:06:22;;;;;;;3.40;0.82;;;21.70;92.90;;;;;;5031001;28;20048;-79
2023/06/04 10:08:50;;;;;;;1.92;0.90;;;21.60;92.00;;;;;;5031020;28;20579;-78
2023/06/04 10:11:22;;;;;;;4.25;0.85;;;21.30;92.90;;;;;;5032879;28;20073;-78
2023/06/04 10:14:00;;;;;;;3.47;0.68;;;21.30;92.70;;;;;;5024407;28;20041;-78
2023/06/04 10:16:26;;;;;;;3.72;0.80;;;21.40;93.50;;;;;;5029056;28;20690;-78
2023/06/04 10:18:56;;;;;;;3.05;1.17;;;21.40;94.30;;;;;;5024495;28;20087;-78
2023/06/04 10:21:23;;;;;;;5.63;1.00;;;21.70;94.00;;;;;;5026131;28;20041;-79
2023/06/04 10:23:50;;;;;;;4.32;0.68;;;21.90;93.70;;;;;;5026447;28;20083;-79
2023/06/04 10:26:16;;;;;;;2.58;0.65;;;21.90;93.40;;;;;;5026481;28;20038;-78
2023/06/04 10:28:42;;;;;;;5.45;1.17;;;21.60;93.60;;;;;;5026932;28;20187;-79
2023/06/04 10:31:12;;;;;;;1.83;0.80;;;21.90;94.80;;;;;;5032091;28;20060;-79
2023/06/04 10:33:38;;;;;;;3.15;1.00;;;22.20;95.20;;;;;;5027584;28;20049;-78
2023/06/04 10:36:18;;;;;;;2.85;0.90;;;22.30;93.80;;;;;;5028321;28;20546;-79
2023/06/04 10:38:52;;;;;;;3.78;0.70;;;22.40;93.60;;;;;;5026786;28;20080;-78
2023/06/04 10:41:19;;;;;;;2.15;0.98;;;22.30;93.40;;;;;;5022230;28;20148;-79
2023/06/04 10:43:46;;;;;;;3.08;0.80;;;22.30;93.20;;;;;;5023510;28;20670;-78
2023/06/04 10:46:15;;;;;;;3.22;1.10;;;22.40;93.10;;;;;;5022634;28;20034;-78
2023/06/04 10:48:52;;;;;;;4.72;1.02;;;22.60;93.40;;;;;;5023776;28;20104;-79
2023/06/04 10:51:34;;;;;;;3.38;0.93;;;22.70;93.30;;;;;;5027002;28;20041;-80
2023/06/04 10:54:01;;;;;;;3.13;0.85;;;22.50;93.50;;;;;;5023665;28;20091;-81
2023/06/04 10:56:34;;;;;;;2.33;1.10;;;22.50;93.00;;;;;;5025996;28;20045;-79
2023/06/04 10:59:12;;;;;;;2.00;0.70;;;22.40;94.00;;;;;;5026517;28;20455;-80
2023/06/04 11:01:38;;;;;;;4.18;0.70;;;22.10;93.60;;;;;;5007853;28;20208;-79
2023/06/04 11:04:03;;;;;;;3.70;0.90;;;22.30;93.60;;;;;;5029802;28;20132;-79
2023/06/04 11:06:30;;;;;;;3.78;1.73;;;22.20;92.90;;;;;;5031789;28;20289;-79
2023/06/04 11:09:05;;;;;;;2.00;0.80;;;22.00;92.70;;;;;;5027102;28;20643;-81
2023/06/04 11:11:31;;;;;;;7.00;1.08;;;22.30;93.50;;;;;;5031973;28;20037;-81
2023/06/04 11:14:07;;;;;;;4.32;0.77;;;22.30;93.20;;;;;;5029652;28;20052;-81
2023/06/04 11:16:33;;;;;;;3.92;1.45;;;22.40;94.90;;;;;;5028207;28;20068;-79
2023/06/04 11:19:02;;;;;;;4.57;0.73;;;22.40;94.30;;;;;;5026517;28;20057;-81
2023/06/04 11:21:28;;;;;;;2.95;1.00;;;22.30;92.90;;;;;;5029005;28;20049;-79
2023/06/04 11:24:00;;;;;;;4.38;0.90;;;22.30;93.40;;;;;;5024520;28;20065;-78
2023/06/04 11:26:36;;;;;;;4.72;0.90;;;22.40;93.40;;;;;;5024837;28;20110;-79
2023/06/04 11:29:11;;;;;;;2.88;0.77;;;22.40;92.90;;;;;;5026758;28;20237;-78
2023/06/04 11:31:47;;;;;;;1.75;0.98;;;22.30;91.90;;;;;;5024363;28;20709;-80
2023/06/04 11:34:26;;;;;;;5.18;0.90;;;22.40;92.80;;;;;;5025807;28;20057;-80
2023/06/04 11:36:52;;;;;;;6.35;0.88;;;22.40;93.10;;;;;;5026730;28;20491;-80
2023/06/04 11:39:19;;;;;;;2.63;0.80;;;22.60;93.20;;;;;;5031047;28;20068;-80
2023/06/04 11:41:45;;;;;;;3.97;0.75;;;22.80;93.80;;;;;;5029875;28;20037;-79
2023/06/04 11:44:12;;;;;;;3.17;0.90;;;22.70;93.90;;;;;;5031729;28;20040;-79
2023/06/04 11:46:44;;;;;;;3.30;0.82;;;22.70;92.20;;;;;;5022778;28;20041;-78
2023/06/04 11:49:17;;;;;;;2.40;0.90;;;22.70;92.30;;;;;;5030101;28;20033;-81
2023/06/04 11:51:50;;;;;;;6.50;0.98;;;22.50;91.70;;;;;;5029186;28;20045;-81
2023/06/04 11:54:16;;;;;;;4.00;0.68;;;22.50;92.50;;;;;;5028932;28;20068;-81
2023/06/04 11:56:44;;;;;;;4.00;0.80;;;22.70;93.00;;;;;;5029442;28;20037;-80
2023/06/04 11:59:13;;;;;;;5.45;1.05;;;22.90;91.90;;;;;;5031259;28;20041;-81
2023/06/04 12:01:42;;;;;;;2.40;0.70;;;23.00;93.00;;;;;;5027360;28;20069;-79
2023/06/04 12:04:13;;;;;;;5.22;1.13;;;22.90;92.20;;;;;;5046373;28;20046;-81
2023/06/04 12:06:38;;;;;;;6.00;1.10;;;22.80;92.30;;;;;;5029488;28;20071;-79
2023/06/04 12:09:04;;;;;;;24.00;2.17;;;22.80;92.60;;;;;;5030437;28;20519;-79
2023/06/04 12:11:32;;;;;;;5.22;1.15;;;22.90;92.90;;;;;;5032352;28;20376;-80
2023/06/04 12:13:59;;;;;;;4.97;1.00;;;22.70;92.10;;;;;;5030054;28;20088;-80
2023/06/04 12:16:26;;;;;;;4.13;0.85;;;22.70;92.50;;;;;;5028133;28;20090;-80
2023/06/04 12:19:03;;;;;;;9.05;0.90;;;22.60;92.70;;;;;;5026441;28;20037;-81
2023/06/04 12:21:29;;;;;;;6.03;0.90;;;22.40;92.20;;;;;;5005732;28;20049;-79
2023/06/04 12:24:15;;;;;;;3.65;0.75;;;22.30;92.80;;;;;;5031810;28;20033;-80
2023/06/04 12:26:43;;;;;;;90.40;5.40;;;22.30;93.40;;;;;;5032172;28;20079;-81
2023/06/04 12:29:17;;;;;;;6.68;0.90;;;22.10;92.20;;;;;;5031310;28;20041;-79
2023/06/04 12:31:46;;;;;;;2.45;1.15;;;21.80;92.20;;;;;;5026260;28;20052;-78
2023/06/04 12:34:13;;;;;;;4.05;0.90;;;21.80;92.60;;;;;;5027860;28;20091;-80
2023/06/04 12:36:40;;;;;;;2.90;0.73;;;21.90;93.30;;;;;;5030433;28;20411;-80
2023/06/04 12:39:06;;;;;;;7.40;1.52;;;22.00;92.50;;;;;;5028031;28;20041;-80
2023/06/04 12:41:35;;;;;;;2.65;0.90;;;22.20;93.80;;;;;;5028374;28;20455;-81
2023/06/04 12:44:02;;;;;;;4.75;0.93;;;22.30;94.20;;;;;;5030772;28;20051;-78
2023/06/04 12:46:27;;;;;;;7.97;1.15;;;22.40;93.30;;;;;;5029765;28;20396;-80
2023/06/04 12:48:54;;;;;;;1.60;0.60;;;22.50;94.40;;;;;;5030277;28;20036;-80